sensor_id;sensor_type;location;lat;lon;timestamp;P1;durP1;ratioP1;P2;durP2;ratioP2
32325;SDS011;45767;52.316;5.040;2023-06-10T00:17:49;7.6;;;5.1;;
32325;SDS011;45767;52.316;5.040;2023-06-10T00:47:51;14.1;;;4.8;;
32325;SDS011;45767;52.316;5.040;2023-06-10T01:17:54;11.1;;;5.2;;
32325;SDS011;45767;52.316;5.040;2023-06-10T02:17:57;11.7;;;5.2;;
32325;SDS011;45767;52.316;5.040;2023-06-10T02:47:58;12.6;;;6.2;;
32325;SDS011;45767;52.316;5.040;2023-06-10T03:18:00;15.9;;;6.4;;
32325;SDS011;45767;52.316;5.040;2023-06-10T03:48:01;12.8;;;6.1;;
32325;SDS011;45767;52.316;5.040;2023-06-10T04:18:02;11.6;;;6.2;;
32325;SDS011;45767;52.316;5.040;2023-06-10T04:48:04;17.8;;;6.5;;
32325;SDS011;45767;52.316;5.040;2023-06-10T05:18:05;13.5;;;7.0;;
32325;SDS011;45767;52.316;5.040;2023-06-10T05:48:06;13.1;;;6.8;;
32325;SDS011;45767;52.316;5.040;2023-06-10T06:18:07;12.6;;;6.4;;
32325;SDS011;45767;52.316;5.040;2023-06-10T06:48:09;12.3;;;5.9;;
32325;SDS011;45767;52.316;5.040;2023-06-10T07:18:12;13.9;;;5.8;;
32325;SDS011;45767;52.316;5.040;2023-06-10T07:48:15;10.3;;;5.4;;
32325;SDS011;45767;52.316;5.040;2023-06-10T08:18:30;unavailable;;;unavailable;;
32325;SDS011;45767;52.316;5.040;2023-06-10T08:18:36;10.8;;;5.3;;
32325;SDS011;45767;52.316;5.040;2023-06-10T08:31:20;unavailable;;;unavailable;;
32325;SDS011;45767;52.316;5.040;2023-06-10T08:31:25;10.8;;;5.3;;
32325;SDS011;45767;52.316;5.040;2023-06-10T08:48:23;8.5;;;5.0;;
32325;SDS011;45767;52.316;5.040;2023-06-10T09:18:28;13.3;;;5.0;;
32325;SDS011;45767;52.316;5.040;2023-06-10T09:48:34;7.2;;;4.7;;
32325;SDS011;45767;52.316;5.040;2023-06-10T10:18:38;7.4;;;4.3;;
32325;SDS011;45767;52.316;5.040;2023-06-10T10:48:42;8.7;;;4.8;;
32325;SDS011;45767;52.316;5.040;2023-06-10T11:17:17;unavailable;;;unavailable;;
32325;SDS011;45767;52.316;5.040;2023-06-10T11:17:20;8.7;;;4.8;;
32325;SDS011;45767;52.316;5.040;2023-06-10T11:18:47;7.9;;;4.2;;
32325;SDS011;45767;52.316;5.040;2023-06-10T11:48:55;6.4;;;3.9;;
32325;SDS011;45767;52.316;5.040;2023-06-10T12:04:52;unavailable;;;unavailable;;
32325;SDS011;45767;52.316;5.040;2023-06-10T12:04:52;unknown;;;unknown;;
32325;SDS011;45767;52.316;5.040;2023-06-10T12:19:01;7.6;;;3.8;;
32325;SDS011;45767;52.316;5.040;2023-06-10T12:49:05;6.1;;;3.9;;
32325;SDS011;45767;52.316;5.040;2023-06-10T13:19:12;12.4;;;4.6;;
32325;SDS011;45767;52.316;5.040;2023-06-10T13:49:18;6.1;;;3.7;;
32325;SDS011;45767;52.316;5.040;2023-06-10T14:19:25;6.2;;;3.7;;
32325;SDS011;45767;52.316;5.040;2023-06-10T14:49:32;6.9;;;3.2;;
32325;SDS011;45767;52.316;5.040;2023-06-10T15:19:38;9.8;;;3.3;;
32325;SDS011;45767;52.316;5.040;2023-06-10T15:49:45;5.6;;;3.0;;
32325;SDS011;45767;52.316;5.040;2023-06-10T16:19:51;5.5;;;3.2;;
32325;SDS011;45767;52.316;5.040;2023-06-10T16:49:57;5.6;;;2.6;;
32325;SDS011;45767;52.316;5.040;2023-06-10T17:20:04;4.2;;;2.5;;
32325;SDS011;45767;52.316;5.040;2023-06-10T17:50:09;3.5;;;2.6;;
32325;SDS011;45767;52.316;5.040;2023-06-10T18:20:15;7.0;;;3.0;;
32325;SDS011;45767;52.316;5.040;2023-06-10T18:50:20;4.1;;;2.8;;
32325;SDS011;45767;52.316;5.040;2023-06-10T19:20:25;6.8;;;3.3;;
32325;SDS011;45767;52.316;5.040;2023-06-10T19:50:29;4.2;;;2.8;;
32325;SDS011;45767;52.316;5.040;2023-06-10T20:20:33;4.3;;;3.2;;
32325;SDS011;45767;52.316;5.040;2023-06-10T20:50:37;5.1;;;3.0;;
32325;SDS011;45767;52.316;5.040;2023-06-10T21:20:41;7.5;;;3.8;;
32325;SDS011;45767;52.316;5.040;2023-06-10T21:50:44;7.3;;;4.2;;
32325;SDS011;45767;52.316;5.040;2023-06-10T22:20:47;6.2;;;3.6;;
32325;SDS011;45767;52.316;5.040;2023-06-10T22:50:50;6.0;;;3.3;;
32325;SDS011;45767;52.316;5.040;2023-06-10T23:20:53;6.5;;;3.4;;
32325;SDS011;45767;52.316;5.040;2023-06-10T23:50:56;8.0;;;4.7;;
